Time;durP1;ratioP1;P1;durP2;ratioP2;P2;SDS_P1;SDS_P2;PMS_P1;PMS_P2;Temp;Humidity;BMP_temperature;BMP_pressure;BME280_temperature;BME280_humidity;BME280_pressure;Samples;Min_cycle;Max_cycle;Signal;HPM_P1;HPM_P2
2021/12/01 00:02:09;;;;;;;1.05;0.60;;;4.30;99.90;;;;;;5091008;28;20032;-68
2021/12/01 00:04:34;;;;;;;0.30;0.30;;;4.30;99.90;;;;;;5089178;28;20032;-68
2021/12/01 00:07:00;;;;;;;2.47;0.70;;;4.20;99.90;;;;;;5089961;28;20024;-68
2021/12/01 00:09:26;;;;;;;1.13;0.60;;;4.20;99.90;;;;;;5090037;28;20051;-68
2021/12/01 00:11:52;;;;;;;0.80;0.60;;;4.20;99.90;;;;;;5088787;28;20135;-68
2021/12/01 00:14:18;;;;;;;1.40;0.80;;;4.10;99.90;;;;;;5090116;28;20103;-68
2021/12/01 00:16:43;;;;;;;0.55;0.52;;;4.00;99.90;;;;;;5089329;28;20020;-68
2021/12/01 00:19:09;;;;;;;0.50;0.50;;;4.00;99.90;;;;;;5090199;28;20022;-68
2021/12/01 00:21:35;;;;;;;0.82;0.68;;;4.00;99.90;;;;;;5088833;28;20032;-68
2021/12/01 00:24:00;;;;;;;0.52;0.52;;;3.90;99.90;;;;;;5089146;28;20672;-70
2021/12/01 00:26:26;;;;;;;1.45;0.50;;;3.90;99.90;;;;;;5089948;28;20032;-68
2021/12/01 00:28:52;;;;;;;1.35;0.93;;;3.80;99.90;;;;;;5088728;28;20031;-68
2021/12/01 00:31:18;;;;;;;2.38;0.80;;;3.80;99.90;;;;;;5093829;28;20036;-68
2021/12/01 00:33:43;;;;;;;2.03;0.80;;;3.80;99.90;;;;;;5092733;28;20441;-68
2021/12/01 00:36:13;;;;;;;3.40;0.63;;;3.70;99.90;;;;;;5093425;28;20028;-68
2021/12/01 00:38:40;;;;;;;0.82;0.70;;;3.70;99.90;;;;;;5092996;28;20036;-68
2021/12/01 00:41:07;;;;;;;0.47;0.43;;;3.60;99.90;;;;;;5092093;28;20028;-69
2021/12/01 00:43:38;;;;;;;0.40;0.40;;;3.70;99.90;;;;;;5090244;28;20051;-67
2021/12/01 00:46:22;;;;;;;0.40;0.40;;;3.70;99.90;;;;;;5093320;28;20023;-69
2021/12/01 00:48:48;;;;;;;0.40;0.40;;;3.70;99.90;;;;;;5091749;28;20048;-68
2021/12/01 00:51:16;;;;;;;0.43;0.43;;;3.60;99.90;;;;;;5093451;28;20357;-68
2021/12/01 00:53:42;;;;;;;0.40;0.40;;;3.70;99.90;;;;;;5092349;28;20429;-68
2021/12/01 00:56:08;;;;;;;0.40;0.30;;;3.70;99.90;;;;;;5092916;28;20028;-68
2021/12/01 00:58:34;;;;;;;0.30;0.30;;;3.70;99.90;;;;;;5092870;28;20039;-67
2021/12/01 01:01:01;;;;;;;1.48;0.50;;;3.70;99.90;;;;;;5094522;28;20044;-70
2021/12/01 01:03:28;;;;;;;0.30;0.30;;;3.70;99.90;;;;;;5094925;28;20028;-68
2021/12/01 01:05:54;;;;;;;0.55;0.52;;;3.70;99.90;;;;;;5093655;28;20141;-68
2021/12/01 01:08:19;;;;;;;1.13;0.45;;;3.70;99.90;;;;;;5094629;28;20039;-68
2021/12/01 01:10:57;;;;;;;1.05;0.43;;;3.80;99.90;;;;;;5093320;28;20036;-68
2021/12/01 01:16:25;;;;;;;0.60;0.30;;;3.80;99.90;;;;;;5093653;28;20392;-68
2021/12/01 01:19:00;;;;;;;0.50;0.50;;;3.90;99.90;;;;;;5093394;28;20035;-68
2021/12/01 01:21:33;;;;;;;0.70;0.30;;;3.90;99.90;;;;;;5094144;28;20064;-69
2021/12/01 01:24:01;;;;;;;1.65;0.88;;;3.90;99.90;;;;;;5093163;28;20034;-68
2021/12/01 01:26:28;;;;;;;0.82;0.50;;;4.00;99.90;;;;;;5093671;28;20036;-69
2021/12/01 01:28:54;;;;;;;1.00;0.50;;;4.00;99.90;;;;;;5092780;28;20046;-68
2021/12/01 01:31:20;;;;;;;2.42;0.55;;;4.10;99.90;;;;;;5093776;28;20400;-68
2021/12/01 01:33:47;;;;;;;0.70;0.50;;;4.00;99.90;;;;;;5093010;28;20035;-68
2021/12/01 01:36:13;;;;;;;0.50;0.50;;;4.10;99.90;;;;;;5093525;28;20461;-69
2021/12/01 01:38:40;;;;;;;0.95;0.68;;;4.10;99.90;;;;;;5091875;28;20055;-68
2021/12/01 01:41:09;;;;;;;0.60;0.50;;;4.10;99.90;;;;;;5093776;28;20058;-68
2021/12/01 01:43:36;;;;;;;2.95;0.70;;;4.10;99.90;;;;;;5093140;28;20024;-68
2021/12/01 01:46:03;;;;;;;0.77;0.68;;;4.10;99.90;;;;;;5093155;28;20035;-68
2021/12/01 01:48:30;;;;;;;1.10;0.73;;;4.10;99.90;;;;;;5073200;28;20024;-68
2021/12/01 01:51:01;;;;;;;0.93;0.80;;;4.20;99.90;;;;;;5072540;28;20599;-68
2021/12/01 01:53:27;;;;;;;;;;;4.20;99.90;;;;;;5093643;28;20505;-68
2021/12/01 01:55:58;;;;;;;1.02;0.57;;;4.30;99.90;;;;;;5092380;28;19947;-68
2021/12/01 01:58:24;;;;;;;2.00;0.90;;;4.30;99.90;;;;;;5091909;28;20517;-68
2021/12/01 02:01:05;;;;;;;1.23;0.85;;;4.20;99.90;;;;;;5091323;28;20036;-68
2021/12/01 02:03:31;;;;;;;0.90;0.80;;;4.30;99.90;;;;;;5093395;28;20129;-68
2021/12/01 02:05:56;;;;;;;1.30;0.77;;;4.30;99.90;;;;;;5090687;28;20602;-68
2021/12/01 02:08:33;;;;;;;2.03;0.88;;;4.30;99.90;;;;;;5093322;28;20032;-68
2021/12/01 02:11:00;;;;;;;1.00;0.65;;;4.20;99.90;;;;;;5092693;28;20024;-68
2021/12/01 02:13:27;;;;;;;1.08;0.88;;;4.30;99.90;;;;;;5092414;28;20028;-68
2021/12/01 02:15:54;;;;;;;3.10;1.48;;;4.30;99.90;;;;;;5091976;28;20046;-68
2021/12/01 02:18:20;;;;;;;1.13;0.63;;;4.30;99.90;;;;;;5093058;28;20035;-68
2021/12/01 02:21:02;;;;;;;0.98;0.82;;;4.20;99.90;;;;;;5091824;28;20043;-68
2021/12/01 02:23:28;;;;;;;0.60;0.60;;;4.30;99.90;;;;;;5092532;28;20024;-69
2021/12/01 02:25:54;;;;;;;2.40;0.80;;;4.20;99.90;;;;;;5091747;28;20228;-69
2021/12/01 02:28:20;;;;;;;2.53;1.00;;;4.20;99.90;;;;;;5092263;28;20477;-68
2021/12/01 02:30:46;;;;;;;1.95;0.77;;;4.30;99.90;;;;;;5092059;28;20032;-68
2021/12/01 02:33:12;;;;;;;3.92;1.00;;;4.30;99.90;;;;;;5092951;28;20093;-69
2021/12/01 02:35:37;;;;;;;0.90;0.60;;;4.30;99.90;;;;;;5091709;28;20034;-67
2021/12/01 02:38:04;;;;;;;1.92;0.93;;;4.30;99.90;;;;;;5092426;28;20024;-68
2021/12/01 02:40:30;;;;;;;1.27;0.85;;;4.30;99.90;;;;;;5092525;28;20151;-69
2021/12/01 02:42:56;;;;;;;0.98;0.80;;;4.20;99.90;;;;;;5091433;28;20020;-68
2021/12/01 02:45:22;;;;;;;1.77;0.52;;;4.30;99.90;;;;;;5092392;28;20035;-69
2021/12/01 02:47:47;;;;;;;0.50;0.50;;;4.30;99.90;;;;;;5091840;28;20055;-68
2021/12/01 02:50:14;;;;;;;0.82;0.73;;;4.30;99.90;;;;;;5091924;28;20075;-68
2021/12/01 02:52:41;;;;;;;0.70;0.60;;;4.40;99.90;;;;;;5091160;28;20032;-68
2021/12/01 02:55:09;;;;;;;0.90;0.68;;;4.40;99.90;;;;;;5091998;28;20055;-68
2021/12/01 02:57:51;;;;;;;0.95;0.63;;;4.40;99.90;;;;;;5092162;28;20024;-68
2021/12/01 03:00:20;;;;;;;1.63;0.60;;;4.40;99.90;;;;;;5091734;28;20031;-68
2021/12/01 03:02:47;;;;;;;0.65;0.65;;;4.40;99.90;;;;;;5091156;28;20035;-68
2021/12/01 03:05:15;;;;;;;0.60;0.60;;;4.50;99.90;;;;;;5092338;28;20029;-68
2021/12/01 03:07:42;;;;;;;0.85;0.68;;;4.50;99.90;;;;;;5091403;28;20028;-68
2021/12/01 03:10:09;;;;;;;2.80;0.88;;;4.50;99.90;;;;;;5092133;28;20036;-68
2021/12/01 03:12:36;;;;;;;0.43;0.43;;;4.50;99.90;;;;;;5091528;28;20120;-68
2021/12/01 03:15:04;;;;;;;0.60;0.60;;;4.50;99.90;;;;;;5091492;28;20059;-68
2021/12/01 03:17:31;;;;;;;1.35;0.68;;;4.50;99.90;;;;;;5091927;28;20028;-68
2021/12/01 03:19:57;;;;;;;1.33;0.47;;;4.50;99.90;;;;;;5090869;28;20020;-68
2021/12/01 03:22:25;;;;;;;0.60;0.60;;;4.60;99.90;;;;;;5091420;28;20044;-68
2021/12/01 03:24:51;;;;;;;1.92;0.63;;;4.60;99.90;;;;;;5090794;28;20020;-68
2021/12/01 03:27:17;;;;;;;0.82;0.60;;;4.60;99.90;;;;;;5091764;28;20474;-68
2021/12/01 03:29:48;;;;;;;0.63;0.57;;;4.60;99.90;;;;;;5091020;28;20035;-68
2021/12/01 03:32:15;;;;;;;0.70;0.43;;;4.60;99.90;;;;;;5091747;28;20032;-68
2021/12/01 03:34:42;;;;;;;0.93;0.50;;;4.60;99.90;;;;;;5091283;28;20027;-67
2021/12/01 03:37:09;;;;;;;1.10;0.77;;;4.60;99.90;;;;;;5091611;28;20039;-68
2021/12/01 03:39:35;;;;;;;0.88;0.60;;;4.60;99.90;;;;;;5092115;28;20028;-68
2021/12/01 03:42:01;;;;;;;0.63;0.43;;;4.60;99.90;;;;;;5090456;28;20071;-68
2021/12/01 03:44:27;;;;;;;2.53;1.17;;;4.60;99.90;;;;;;5091759;28;20028;-68
2021/12/01 03:46:53;;;;;;;1.27;0.80;;;4.50;99.90;;;;;;5090579;28;20028;-68
2021/12/01 03:49:19;;;;;;;0.88;0.70;;;4.50;99.90;;;;;;5091492;28;20055;-69
2021/12/01 03:51:44;;;;;;;0.60;0.40;;;4.50;99.90;;;;;;5090400;28;20060;-68
2021/12/01 03:54:10;;;;;;;0.52;0.43;;;4.50;99.90;;;;;;5090930;28;20052;-68
2021/12/01 03:56:36;;;;;;;0.90;0.60;;;4.50;99.90;;;;;;5091856;28;20063;-68
2021/12/01 03:59:03;;;;;;;2.00;0.85;;;4.50;99.90;;;;;;5091120;28;20024;-69
2021/12/01 04:01:29;;;;;;;1.63;0.55;;;4.50;99.90;;;;;;5090600;28;20432;-70
2021/12/01 04:03:55;;;;;;;3.17;1.20;;;4.50;99.90;;;;;;5089953;28;20024;-69
2021/12/01 04:06:21;;;;;;;3.97;0.77;;;4.50;99.90;;;;;;5095516;28;20496;-68
2021/12/01 04:08:48;;;;;;;0.65;0.47;;;4.60;99.90;;;;;;5094637;28;20112;-68
2021/12/01 04:11:13;;;;;;;0.82;0.63;;;4.50;99.90;;;;;;5095665;28;20423;-68
2021/12/01 04:13:39;;;;;;;3.40;0.70;;;4.50;99.90;;;;;;5095114;28;20032;-68
2021/12/01 04:16:05;;;;;;;0.80;0.70;;;4.50;99.90;;;;;;5095464;28;20028;-68
2021/12/01 04:18:30;;;;;;;0.70;0.68;;;4.50;99.90;;;;;;5095375;28;20028;-68
2021/12/01 04:20:56;;;;;;;1.17;0.80;;;4.50;99.90;;;;;;5094336;28;20096;-69
2021/12/01 04:23:22;;;;;;;1.83;0.82;;;4.50;99.90;;;;;;5094321;28;20160;-68
2021/12/01 04:25:48;;;;;;;2.67;0.80;;;4.50;99.90;;;;;;5094202;28;20525;-68
2021/12/01 04:28:14;;;;;;;1.35;0.70;;;4.60;99.90;;;;;;5095104;28;20032;-68
2021/12/01 04:30:39;;;;;;;1.88;1.10;;;4.60;99.90;;;;;;5095059;28;20050;-68
2021/12/01 04:33:06;;;;;;;2.25;1.25;;;4.60;99.90;;;;;;5094246;28;20056;-68
2021/12/01 04:35:33;;;;;;;1.58;1.08;;;4.60;99.90;;;;;;5095170;28;20494;-68
2021/12/01 04:38:00;;;;;;;1.35;0.63;;;4.60;99.90;;;;;;5094255;28;20754;-68
2021/12/01 04:40:26;;;;;;;2.42;1.20;;;4.60;99.90;;;;;;5094927;28;20040;-68
2021/12/01 04:42:52;;;;;;;1.83;1.20;;;4.70;99.90;;;;;;5094132;28;20032;-68
2021/12/01 04:45:19;;;;;;;2.67;1.50;;;4.70;99.90;;;;;;5095185;28;20395;-69
2021/12/01 04:47:51;;;;;;;2.60;1.27;;;4.70;99.90;;;;;;5093864;28;20024;-68
2021/12/01 04:50:20;;;;;;;0.88;0.80;;;4.70;99.90;;;;;;5094492;28;20131;-68
2021/12/01 04:52:46;;;;;;;1.42;1.27;;;4.80;99.90;;;;;;5093616;28;20077;-68
2021/12/01 04:55:12;;;;;;;3.50;1.38;;;4.80;99.90;;;;;;5094988;28;20089;-69
2021/12/01 04:57:40;;;;;;;2.05;1.02;;;4.80;99.90;;;;;;5094315;28;20366;-69
2021/12/01 05:00:08;;;;;;;1.88;1.00;;;4.90;99.90;;;;;;5094167;28;20035;-68
2021/12/01 05:02:34;;;;;;;2.42;0.88;;;4.90;99.90;;;;;;5094283;28;20036;-70
2021/12/01 05:05:00;;;;;;;1.77;0.90;;;4.90;99.90;;;;;;5093964;28;20058;-70
2021/12/01 05:07:25;;;;;;;1.90;0.90;;;5.00;99.90;;;;;;5094328;28;20081;-68
2021/12/01 05:09:51;;;;;;;1.00;0.85;;;5.00;99.90;;;;;;5093397;28;20032;-68
2021/12/01 05:12:17;;;;;;;1.42;0.75;;;5.00;99.90;;;;;;5094220;28;20039;-69
2021/12/01 05:14:43;;;;;;;0.70;0.50;;;5.00;99.90;;;;;;5093824;28;20049;-68
2021/12/01 05:17:08;;;;;;;2.28;1.13;;;5.00;99.90;;;;;;5093675;28;20065;-68
2021/12/01 05:19:35;;;;;;;1.92;0.98;;;5.00;99.90;;;;;;5094195;28;20389;-69
2021/12/01 05:22:02;;;;;;;2.20;0.68;;;5.10;99.90;;;;;;5093056;28;20032;-68
2021/12/01 05:24:28;;;;;;;3.40;1.00;;;5.00;99.90;;;;;;5094523;28;20393;-68
2021/12/01 05:26:53;;;;;;;1.05;0.70;;;5.00;99.90;;;;;;5091644;28;20024;-68
2021/12/01 05:29:21;;;;;;;1.90;0.98;;;5.00;99.90;;;;;;5093524;28;20508;-68
2021/12/01 05:31:48;;;;;;;1.52;0.60;;;5.10;99.90;;;;;;5093071;28;20028;-68
2021/12/01 05:34:14;;;;;;;1.00;0.40;;;5.10;99.90;;;;;;5093940;28;20024;-68
2021/12/01 05:36:39;;;;;;;0.55;0.50;;;5.10;99.90;;;;;;5093672;28;20097;-69
2021/12/01 05:39:05;;;;;;;1.20;0.60;;;5.20;99.90;;;;;;5092647;28;20040;-68
2021/12/01 05:41:31;;;;;;;0.40;0.35;;;5.30;99.90;;;;;;5093693;28;20389;-68
2021/12/01 05:43:57;;;;;;;2.30;0.40;;;3.00;99.90;;;;;;5092866;28;20073;-68
2021/12/01 05:46:23;;;;;;;0.50;0.40;;;5.60;99.90;;;;;;5093934;28;20039;-68
2021/12/01 05:48:51;;;;;;;0.52;0.30;;;5.70;99.90;;;;;;5092352;28;20090;-68
2021/12/01 05:51:19;;;;;;;1.17;0.30;;;5.80;99.90;;;;;;5093530;28;20073;-68
2021/12/01 05:53:45;;;;;;;1.50;0.20;;;;;;;;;;5093052;28;20149;-68
2021/12/01 05:56:11;;;;;;;0.75;0.22;;;6.00;99.90;;;;;;5093575;28;20024;-68
2021/12/01 05:58:36;;;;;;;1.25;0.30;;;6.00;99.90;;;;;;5093022;28;20373;-68
2021/12/01 06:01:02;;;;;;;3.58;0.50;;;6.00;99.90;;;;;;5092813;28;20032;-69
2021/12/01 06:03:28;;;;;;;2.58;0.40;;;5.90;99.90;;;;;;5092826;28;20103;-69
2021/12/01 06:05:54;;;;;;;0.82;0.50;;;5.90;99.90;;;;;;5092619;28;20484;-68
2021/12/01 06:08:20;;;;;;;0.80;0.40;;;5.90;99.90;;;;;;5092904;28;20040;-69
2021/12/01 06:10:46;;;;;;;0.43;0.35;;;5.90;99.90;;;;;;5092654;28;20549;-67
2021/12/01 06:13:16;;;;;;;0.35;0.20;;;5.90;99.90;;;;;;5093195;28;20107;-69
2021/12/01 06:15:44;;;;;;;1.30;0.35;;;5.90;99.90;;;;;;5092222;28;20064;-68
2021/12/01 06:18:10;;;;;;;2.67;0.50;;;5.80;99.90;;;;;;5092502;28;20113;-69
2021/12/01 06:20:36;;;;;;;1.95;0.50;;;5.90;99.90;;;;;;5093169;28;20036;-68
2021/12/01 06:23:02;;;;;;;1.08;0.50;;;6.00;99.90;;;;;;5092162;28;20035;-68
2021/12/01 06:25:28;;;;;;;2.05;0.50;;;5.90;99.90;;;;;;5093188;28;20028;-69
2021/12/01 06:27:54;;;;;;;1.52;0.80;;;6.00;99.90;;;;;;5090627;28;20029;-68
2021/12/01 06:30:21;;;;;;;3.20;0.82;;;6.00;99.90;;;;;;5092871;28;20078;-69
2021/12/01 06:32:48;;;;;;;0.32;0.20;;;6.10;99.90;;;;;;5091880;28;20039;-68
2021/12/01 06:35:14;;;;;;;0.43;0.30;;;6.10;99.90;;;;;;5092978;28;20031;-69
2021/12/01 06:37:40;;;;;;;0.65;0.30;;;6.10;99.90;;;;;;5092608;28;20028;-68
2021/12/01 06:40:07;;;;;;;0.38;0.20;;;6.10;99.90;;;;;;5091865;28;20179;-69
2021/12/01 06:42:35;;;;;;;0.30;0.20;;;6.20;99.90;;;;;;5091581;28;20028;-69
2021/12/01 06:45:03;;;;;;;0.98;0.40;;;6.20;99.90;;;;;;5092118;28;20028;-69
2021/12/01 06:47:28;;;;;;;3.13;0.30;;;6.20;99.90;;;;;;5092607;28;20189;-68
2021/12/01 06:49:54;;;;;;;0.90;0.45;;;6.20;99.90;;;;;;5091357;28;20540;-67
2021/12/01 06:52:20;;;;;;;1.55;0.52;;;6.30;99.90;;;;;;5092401;28;20093;-70
2021/12/01 06:54:46;;;;;;;1.00;0.47;;;6.20;99.90;;;;;;5091677;28;20024;-68
2021/12/01 06:57:12;;;;;;;3.25;0.65;;;6.20;99.90;;;;;;5092190;28;20055;-69
2021/12/01 06:59:37;;;;;;;2.55;0.60;;;6.20;99.90;;;;;;5092102;28;20054;-71
2021/12/01 07:02:03;;;;;;;3.00;0.80;;;6.20;99.90;;;;;;5091019;28;20117;-67
2021/12/01 07:04:30;;;;;;;1.52;0.63;;;6.30;99.90;;;;;;5091735;28;20381;-71
2021/12/01 07:06:58;;;;;;;1.40;0.50;;;6.30;99.90;;;;;;5091390;28;20024;-71
2021/12/01 07:09:25;;;;;;;1.13;0.50;;;6.40;99.90;;;;;;5092210;28;20113;-68
2021/12/01 07:11:51;;;;;;;1.20;0.45;;;6.50;99.90;;;;;;5091148;28;20028;-68
2021/12/01 07:14:17;;;;;;;0.73;0.32;;;6.50;99.90;;;;;;5091908;28;20114;-68
2021/12/01 07:16:43;;;;;;;1.48;0.57;;;6.60;99.90;;;;;;5091754;28;20154;-69
2021/12/01 07:19:09;;;;;;;2.05;0.45;;;6.60;99.90;;;;;;5090426;28;20096;-69
2021/12/01 07:21:35;;;;;;;1.27;0.30;;;6.70;99.90;;;;;;5091437;28;20524;-70
2021/12/01 07:24:03;;;;;;;0.70;0.50;;;6.70;99.90;;;;;;5070975;28;20017;-70
2021/12/01 07:26:29;;;;;;;1.45;0.65;;;6.70;99.90;;;;;;5071992;28;20028;-72
2021/12/01 07:28:55;;;;;;;0.38;0.20;;;6.70;99.90;;;;;;5070937;28;20031;-70
2021/12/01 07:31:21;;;;;;;1.00;0.30;;;6.70;99.90;;;;;;5083074;28;20107;-70
2021/12/01 07:33:46;;;;;;;0.52;0.20;;;6.80;99.90;;;;;;5091293;28;20081;-67
2021/12/01 07:36:14;;;;;;;1.55;0.30;;;6.90;99.90;;;;;;5091540;28;20030;-70
2021/12/01 07:38:39;;;;;;;0.20;0.20;;;6.90;99.90;;;;;;5085319;28;20393;-68
2021/12/01 07:41:05;;;;;;;0.40;0.22;;;;;;;;;;5089644;28;20032;-69
2021/12/01 07:43:32;;;;;;;2.15;0.50;;;;;;;;;;5091503;28;20377;-69
2021/12/01 07:46:00;;;;;;;0.82;0.30;;;;;;;;;;5090310;28;20075;-68
2021/12/01 07:48:27;;;;;;;2.80;0.30;;;7.00;99.90;;;;;;5091405;28;20095;-69
2021/12/01 07:50:53;;;;;;;1.75;0.32;;;7.00;99.90;;;;;;5090489;28;20097;-69
2021/12/01 07:53:19;;;;;;;1.95;0.22;;;6.90;99.90;;;;;;5091738;28;20039;-69
2021/12/01 07:55:44;;;;;;;0.98;0.30;;;7.00;99.90;;;;;;5091597;28;20457;-69
2021/12/01 07:58:10;;;;;;;0.98;0.38;;;7.10;99.90;;;;;;5090251;28;20789;-70
2021/12/01 08:00:36;;;;;;;0.10;0.10;;;7.10;99.90;;;;;;5090695;28;20469;-69
2021/12/01 08:03:03;;;;;;;0.73;0.20;;;7.10;99.90;;;;;;5090092;28;20024;-69
2021/12/01 08:05:29;;;;;;;0.20;0.10;;;7.10;99.90;;;;;;5089862;28;20020;-68
2021/12/01 08:07:56;;;;;;;0.65;0.30;;;7.20;99.90;;;;;;5089384;28;20039;-68
2021/12/01 08:10:21;;;;;;;0.82;0.30;;;7.30;99.90;;;;;;5089784;28;20028;-68
2021/12/01 08:12:53;;;;;;;1.50;0.57;;;7.40;99.90;;;;;;5090913;28;20034;-68
2021/12/01 08:15:21;;;;;;;1.70;0.50;;;7.30;99.90;;;;;;5091358;28;20024;-69
2021/12/01 08:17:47;;;;;;;1.05;0.50;;;7.40;99.90;;;;;;5091027;28;20077;-68
2021/12/01 08:20:12;;;;;;;0.50;0.35;;;7.50;99.90;;;;;;5090062;28;20032;-69
2021/12/01 08:22:38;;;;;;;0.50;0.35;;;7.40;99.90;;;;;;5090055;28;20032;-69
2021/12/01 08:25:04;;;;;;;0.98;0.47;;;7.30;99.90;;;;;;5090761;28;20034;-69
2021/12/01 08:27:30;;;;;;;0.98;0.45;;;7.30;99.90;;;;;;5090841;28;20036;-69
2021/12/01 08:29:56;;;;;;;2.97;0.30;;;7.40;99.90;;;;;;5089928;28;20032;-70
2021/12/01 08:32:22;;;;;;;0.63;0.22;;;7.40;99.90;;;;;;5090714;28;20115;-70
2021/12/01 08:34:50;;;;;;;1.65;0.20;;;7.40;99.90;;;;;;5090946;28;20526;-68
2021/12/01 08:37:18;;;;;;;0.90;0.28;;;7.50;99.90;;;;;;5089126;28;20140;-70
2021/12/01 08:39:53;;;;;;;0.75;0.20;;;7.50;99.90;;;;;;5089130;28;20446;-70
2021/12/01 08:42:22;;;;;;;0.73;0.30;;;7.60;99.90;;;;;;5090674;28;20040;-71
2021/12/01 08:44:50;;;;;;;0.30;0.20;;;7.70;99.90;;;;;;5091024;28;20074;-69
2021/12/01 08:47:19;;;;;;;1.25;0.57;;;7.80;99.90;;;;;;5090804;28;20371;-70
2021/12/01 08:49:45;;;;;;;1.00;0.20;;;7.80;99.90;;;;;;5090301;28;20048;-70
2021/12/01 08:52:13;;;;;;;0.20;0.10;;;7.90;99.90;;;;;;5092950;28;20085;-70
2021/12/01 08:54:39;;;;;;;0.43;0.10;;;8.10;99.90;;;;;;5094080;28;20035;-70
2021/12/01 08:57:05;;;;;;;0.30;0.10;;;8.10;99.90;;;;;;5093739;28;20480;-70
2021/12/01 08:59:32;;;;;;;0.75;0.30;;;8.10;99.90;;;;;;5092901;28;20129;-70
2021/12/01 09:02:00;;;;;;;2.65;0.20;;;8.20;99.90;;;;;;5093162;28;20069;-70
2021/12/01 09:04:26;;;;;;;0.47;0.28;;;8.30;99.90;;;;;;5093695;28;20058;-70
2021/12/01 09:06:52;;;;;;;0.20;0.20;;;8.40;99.90;;;;;;5093082;28;20082;-68
2021/12/01 09:09:18;;;;;;;0.30;0.10;;;8.50;99.90;;;;;;5093990;28;20493;-70
2021/12/01 09:12:03;;;;;;;0.32;0.32;;;;;;;;;;5094052;28;20025;-71
2021/12/01 09:14:29;;;;;;;0.82;0.40;;;;;;;;;;5094053;28;20024;-70
2021/12/01 09:16:55;;;;;;;0.47;0.25;;;;;;;;;;5093379;28;20150;-70
2021/12/01 09:19:22;;;;;;;0.98;0.28;;;;;;;;;;5093699;28;20035;-70
2021/12/01 09:21:48;;;;;;;0.45;0.10;;;;;;;;;;5093558;28;20522;-70
2021/12/01 09:24:15;;;;;;;1.15;0.22;;;;;;;;;;5093716;28;20465;-70
2021/12/01 09:26:41;;;;;;;0.28;0.10;;;;;;;;;;5094006;28;20032;-70
2021/12/01 09:29:07;;;;;;;0.88;0.15;;;;;;;;;;5092196;28;20564;-70
2021/12/01 09:31:34;;;;;;;1.13;0.20;;;;;;;;;;5092818;28;20040;-70
2021/12/01 09:34:00;;;;;;;1.05;0.13;;;;;;;;;;5091843;28;20032;-70
2021/12/01 09:36:26;;;;;;;0.20;0.20;;;;;;;;;;5093236;28;20411;-70
2021/12/01 09:38:54;;;;;;;0.82;0.20;;;;;;;;;;5092612;28;20085;-69
2021/12/01 09:41:20;;;;;;;0.20;0.10;;;;;;;;;;5093436;28;20595;-69
2021/12/01 09:43:46;;;;;;;0.38;0.10;;;;;;;;;;5092908;28;20058;-70
2021/12/01 09:46:12;;;;;;;1.65;0.25;;;;;;;;;;5092520;28;20606;-69
2021/12/01 09:48:40;;;;;;;2.10;0.20;;;;;;;;;;5093517;28;20026;-70
2021/12/01 09:51:06;;;;;;;0.52;0.13;;;;;;;;;;5093107;28;20103;-70
2021/12/01 09:53:33;;;;;;;1.00;0.20;;;;;;;;;;5091016;28;20028;-70
2021/12/01 09:55:59;;;;;;;0.47;0.30;;;;;;;;;;5092234;28;20024;-69
2021/12/01 09:58:30;;;;;;;0.52;0.30;;;;;;;;;;5093063;28;20028;-70
2021/12/01 10:00:58;;;;;;;0.60;0.20;;;;;;;;;;5092327;28;20499;-69
2021/12/01 10:03:24;;;;;;;0.30;0.20;;;;;;;;;;5091474;28;20031;-70
2021/12/01 10:05:52;;;;;;;1.75;0.20;;;;;;;;;;5093293;28;20024;-70
2021/12/01 10:08:22;;;;;;;2.03;0.30;;;;;;;;;;5092268;28;20016;-69
2021/12/01 10:10:49;;;;;;;0.38;0.20;;;;;;;;;;5092599;28;20119;-70
2021/12/01 10:13:16;;;;;;;0.43;0.20;;;;;;;;;;5092257;28;20127;-70
2021/12/01 10:15:42;;;;;;;0.50;0.28;;;;;;;;;;5091405;28;20393;-70
2021/12/01 10:18:12;;;;;;;0.43;0.10;;;;;;;;;;5092076;28;20024;-70
2021/12/01 10:20:41;;;;;;;0.30;0.20;;;9.70;99.90;;;;;;5092793;28;20039;-70
2021/12/01 10:23:12;;;;;;;2.63;0.50;;;9.70;99.90;;;;;;5090189;28;20059;-69
2021/12/01 10:25:38;;;;;;;0.50;0.10;;;;;;;;;;5092872;28;20016;-70
2021/12/01 10:28:06;;;;;;;0.40;0.13;;;;;;;;;;5090766;28;20024;-69
2021/12/01 10:30:44;;;;;;;0.98;0.10;;;;;;;;;;5092422;28;20047;-70
2021/12/01 10:33:17;;;;;;;0.40;0.20;;;;;;;;;;5091478;28;20450;-70
2021/12/01 10:35:43;;;;;;;2.92;0.65;;;;;;;;;;5092577;28;20085;-71
2021/12/01 10:38:13;;;;;;;0.90;0.52;;;10.10;99.90;;;;;;5089967;28;20469;-69
2021/12/01 10:40:39;;;;;;;1.02;0.10;;;10.10;99.90;;;;;;5092217;28;20028;-69
2021/12/01 10:43:05;;;;;;;0.30;0.22;;;10.00;99.90;;;;;;5091322;28;20107;-69
2021/12/01 10:45:57;;;;;;;2.88;0.30;;;10.10;99.90;;;;;;5092322;28;20103;-69
2021/12/01 10:48:25;;;;;;;0.75;0.40;;;10.30;99.90;;;;;;5068567;28;20060;-70
2021/12/01 10:50:51;;;;;;;1.42;0.20;;;;;;;;;;5072144;28;20078;-70
2021/12/01 10:53:18;;;;;;;0.35;0.28;;;;;;;;;;5077159;28;20028;-70
2021/12/01 10:55:45;;;;;;;0.28;0.20;;;;;;;;;;5091904;28;20024;-69
2021/12/01 10:58:11;;;;;;;0.55;0.30;;;;;;;;;;5091242;28;20111;-70
2021/12/01 11:00:39;;;;;;;0.20;0.20;;;;;;;;;;5091773;28;20099;-70
2021/12/01 11:03:08;;;;;;;0.93;0.17;;;;;;;;;;5091169;28;20020;-70
2021/12/01 11:05:39;;;;;;;1.00;0.25;;;;;;;;;;5091348;28;20060;-70
2021/12/01 11:08:11;;;;;;;0.20;0.20;;;;;;;;;;5090429;28;20012;-70
2021/12/01 11:10:37;;;;;;;1.00;0.20;;;;;;;;;;5091097;28;20028;-70
2021/12/01 11:13:03;;;;;;;0.63;0.10;;;;;;;;;;5090891;28;20063;-69
2021/12/01 11:15:31;;;;;;;0.88;0.30;;;;;;;;;;5090856;28;20050;-70
2021/12/01 11:17:59;;;;;;;1.98;0.20;;;;;;;;;;5090638;28;20027;-69
2021/12/01 11:20:51;;;;;;;0.40;0.20;;;;;;;;;;5091883;28;20078;-70
2021/12/01 11:23:19;;;;;;;0.55;0.10;;;;;;;;;;5065842;28;20276;-70
2021/12/01 11:25:47;;;;;;;0.30;0.10;;;;;;;;;;5091337;28;20385;-70
2021/12/01 11:28:15;;;;;;;0.43;0.10;;;;;;;;;;5090557;28;20021;-69
2021/12/01 11:30:43;;;;;;;0.00;0.00;;;;;;;;;;5092036;28;20035;-69
2021/12/01 11:33:13;;;;;;;0.40;0.20;;;;;;;;;;5089893;28;20477;-69
2021/12/01 11:35:39;;;;;;;0.30;0.10;;;;;;;;;;5091204;28;20028;-70
2021/12/01 11:38:06;;;;;;;0.65;0.45;;;;;;;;;;5091171;28;20024;-70
2021/12/01 11:40:32;;;;;;;0.22;0.10;;;;;;;;;;5091367;28;20056;-70
2021/12/01 11:43:00;;;;;;;0.30;0.20;;;;;;;;;;5090841;28;20027;-68
2021/12/01 11:45:26;;;;;;;0.40;0.20;;;10.70;99.90;;;;;;5091124;28;20473;-70
2021/12/01 11:47:53;;;;;;;0.47;0.03;;;10.80;99.90;;;;;;5091120;28;20035;-71
2021/12/01 11:50:32;;;;;;;0.32;0.20;;;10.90;99.90;;;;;;5090671;28;20039;-71
2021/12/01 11:53:14;;;;;;;1.13;0.20;;;11.00;99.90;;;;;;5090370;28;20039;-68
2021/12/01 11:56:00;;;;;;;0.30;0.22;;;11.10;99.90;;;;;;5090729;28;20169;-72
2021/12/01 11:58:41;;;;;;;0.70;0.30;;;;;;;;;;5091240;28;20039;-70
2021/12/01 12:01:27;;;;;;;2.17;0.20;;;;;;;;;;5089181;28;20461;-72
2021/12/01 12:03:53;;;;;;;0.38;0.30;;;;;;;;;;5091406;28;20157;-71
2021/12/01 12:06:20;;;;;;;0.40;0.13;;;;;;;;;;5090286;28;20028;-71
2021/12/01 12:08:56;;;;;;;3.80;0.25;;;;;;;;;;5091312;28;20024;-70
2021/12/01 12:11:42;;;;;;;0.30;0.30;;;;;;;;;;5090749;28;20028;-71
2021/12/01 12:14:14;;;;;;;0.32;0.25;;;;;;;;;;5090347;28;20016;-70
2021/12/01 12:16:41;;;;;;;0.93;0.50;;;;;;;;;;5091072;28;20024;-71
2021/12/01 12:19:07;;;;;;;0.52;0.30;;;;;;;;;;5088958;28;20051;-71
2021/12/01 12:21:48;;;;;;;1.33;0.32;;;;;;;;;;5091097;28;20040;-70
2021/12/01 12:24:18;;;;;;;1.10;0.50;;;;;;;;;;5089243;28;20077;-71
2021/12/01 12:26:47;;;;;;;1.23;0.38;;;;;;;;;;5093982;28;20028;-72
2021/12/01 12:29:15;;;;;;;1.13;0.45;;;;;;;;;;5094294;28;20021;-72
2021/12/01 12:31:42;;;;;;;0.50;0.50;;;;;;;;;;5094983;28;20376;-71
2021/12/01 12:34:14;;;;;;;1.35;0.50;;;;;;;;;;5093301;28;20021;-70
2021/12/01 12:36:48;;;;;;;2.30;0.47;;;;;;;;;;5094412;28;20027;-71
2021/12/01 12:39:15;;;;;;;0.80;0.30;;;;;;;;;;5093665;28;20074;-70
2021/12/01 12:42:05;;;;;;;0.30;0.30;;;;;;;;;;5094513;28;20043;-71
2021/12/01 12:44:33;;;;;;;1.25;0.40;;;;;;;;;;5089412;28;20535;-70
2021/12/01 12:47:04;;;;;;;1.90;0.60;;;;;;;;;;5094827;28;20473;-69
2021/12/01 12:49:56;;;;;;;1.45;0.50;;;;;;;;;;5095272;28;20068;-70
2021/12/01 12:52:25;;;;;;;1.15;0.52;;;;;;;;;;5089651;28;20048;-70
2021/12/01 12:54:52;;;;;;;1.50;0.68;;;;;;;;;;5094345;28;20024;-70
2021/12/01 12:57:20;;;;;;;0.55;0.35;;;;;;;;;;5093256;28;20117;-70
2021/12/01 12:59:47;;;;;;;2.13;0.60;;;;;;;;;;5093516;28;20416;-70
2021/12/01 13:02:15;;;;;;;0.63;0.43;;;;;;;;;;5092824;28;20028;-69
2021/12/01 13:05:05;;;;;;;0.90;0.52;;;;;;;;;;5093595;28;20385;-69
2021/12/01 13:07:35;;;;;;;0.50;0.50;;;;;;;;;;5094139;28;20036;-69
2021/12/01 13:10:23;;;;;;;1.20;0.70;;;;;;;;;;5094126;28;20362;-68
2021/12/01 13:12:52;;;;;;;1.55;0.60;;;;;;;;;;5093616;28;20020;-69
2021/12/01 13:15:35;;;;;;;0.82;0.73;;;;;;;;;;5092996;28;20473;-69
2021/12/01 13:18:05;;;;;;;1.85;0.80;;;;;;;;;;5085655;28;20035;-68
2021/12/01 13:20:33;;;;;;;0.57;0.55;;;;;;;;;;5093068;28;20028;-70
2021/12/01 13:23:03;;;;;;;0.70;0.60;;;;;;;;;;5094118;28;20189;-69
2021/12/01 13:25:29;;;;;;;1.60;0.60;;;;;;;;;;5093338;28;20511;-69
2021/12/01 13:27:55;;;;;;;1.30;0.63;;;;;;;;;;5094151;28;20036;-70
2021/12/01 13:30:21;;;;;;;2.50;0.70;;;;;;;;;;5093184;28;20089;-69
2021/12/01 13:33:05;;;;;;;2.42;0.65;;;;;;;;;;5093902;28;20071;-70